King of Scandinavia — OVOL2 — position and weather

sailwx.info

Track history (hours):
 
Tides and Currents Weather Stations Pressure Air Temp Water Temp Dewpoint Dewpoint Depression Visibility Wind Speed Wind Dir Waves Ship Positions

King of Scandinavia

Ship's website: http://www.dfds.co.uk/DSW/EN/OnBoard/na/KING.htm

Last reported at 2017-Mar-23 11:32 UTC. Time now 2017-Mar-23 12:17 UTC.
Position N 54°59' W 001°27'.

Length 166 m; beam 27.6 m; draft 6.2 m.

Type: Ship. MMSI: 220449000.

Date/timePositionNaut miles runAvg speedWind from/ knotsBaromVisibWave heightAir tempDewpointWater temp
2017-Mar-23 11:32N 54°59' W 001°27'0 0.0
2017-Mar-23 10:34N 54°59' W 001°27'0 0.0
2017-Mar-23 09:33N 54°59' W 001°27'5 5.1
2017-Mar-23 08:34N 54°60' W 001°18'3514.8
2017-Mar-23 06:11N 54°41' W 000°26'1117.7
2017-Mar-23 05:33N 54°34' W 000°11'1818.0
2017-Mar-23 04:34N 54°25' E 000°15'16716.3
2017-Mar-22 18:18N 52°45' E 004°01'1115.1
2017-Mar-22 17:34N 52°37' E 004°14'1514.9
2017-Mar-22 16:33N 52°28' E 004°33'1 1.1
2017-Mar-22 15:31N 52°28' E 004°35'0 0.0
2017-Mar-22 14:31N 52°28' E 004°35'0 0.0
2017-Mar-22 13:31N 52°28' E 004°35'0 0.0
2017-Mar-22 12:31N 52°28' E 004°35'0 0.0
2017-Mar-22 11:31N 52°28' E 004°35'0 0.0
2017-Mar-22 10:31N 52°28' E 004°35'0 0.0
2017-Mar-22 09:31N 52°28' E 004°35'0 0.0
2017-Mar-22 08:33N 52°28' E 004°35'1111.1
2017-Mar-22 07:33N 52°34' E 004°20'1414.4
2017-Mar-22 06:33N 52°44' E 004°03'15917.7
2017-Mar-21 21:33N 54°19' E 000°29'1818.3
2017-Mar-21 20:33N 54°29' E 000°03'1818.3
2017-Mar-21 19:33N 54°39' W 000°24'3818.2
2017-Mar-21 17:29N 54°59' W 001°19'5 4.8
2017-Mar-21 16:32N 54°59' W 001°27'0 0.0
2017-Mar-21 15:14N 54°59' W 001°27'0 0.0
2017-Mar-21 14:31N 54°59' W 001°27'0 0.0
2017-Mar-21 13:33N 54°59' W 001°27'0 0.0
2017-Mar-21 10:17N 54°59' W 001°27'0 0.0
2017-Mar-21 09:28N 54°59' W 001°27'5 5.7
2017-Mar-21 08:33N 54°60' W 001°18'4016.9
2017-Mar-21 06:13N 54°38' W 000°20'1116.4
2017-Mar-21 05:33N 54°32' W 000°04'1716.7
2017-Mar-21 04:34N 54°24' E 000°20'14916.6
2017-Mar-20 19:33N 52°55' E 003°42'1717.1
2017-Mar-20 18:33N 52°43' E 004°04'1616.3
2017-Mar-20 17:34N 52°32' E 004°23'9 8.6
2017-Mar-20 16:33N 52°28' E 004°35'0 0.0
2017-Mar-20 15:33N 52°28' E 004°35'0 0.0
2017-Mar-20 14:33N 52°28' E 004°35'0 0.0
2017-Mar-20 13:33N 52°28' E 004°35'0 0.0
2017-Mar-20 12:30N 52°28' E 004°35'0 0.0
2017-Mar-20 11:33N 52°28' E 004°35'0 0.0
2017-Mar-20 10:30N 52°28' E 004°35'0 0.0
2017-Mar-20 09:33N 52°28' E 004°35'0 0.0
2017-Mar-20 08:34N 52°28' E 004°35'1313.4
2017-Mar-20 07:34N 52°36' E 004°17'1615.7
2017-Mar-20 06:33N 52°46' E 003°58'15016.7
2017-Mar-19 21:34N 54°17' E 000°37'1919.0
2017-Mar-19 20:34N 54°27' E 000°09'1919.0
2017-Mar-19 19:34N 54°37' W 000°18'4018.9
2017-Mar-19 17:27N 54°58' W 001°17'6 6.7
2017-Mar-19 16:33N 54°59' W 001°27'0 0.0
2017-Mar-19 15:19N 54°59' W 001°27'0 0.0
2017-Mar-19 14:23N 54°59' W 001°27'0 0.0
2017-Mar-19 13:27N 54°59' W 001°27'0 0.0
2017-Mar-19 12:33N 54°59' W 001°27'0 0.0
2017-Mar-19 11:29N 54°59' W 001°27'0 0.0
2017-Mar-19 10:23N 54°59' W 001°27'0 0.0
2017-Mar-19 09:33N 54°59' W 001°27'6 6.0
2017-Mar-19 08:33N 54°59' W 001°17'4514.9
2017-Mar-19 05:33N 54°35' W 000°11'1716.8
2017-Mar-19 04:34N 54°26' E 000°13'18116.4
2017-Mar-18 17:31N 52°37' E 004°16'1414.3
2017-Mar-18 16:33N 52°28' E 004°34'1 0.7
2017-Mar-18 15:31N 52°28' E 004°35'0 0.0
2017-Mar-18 14:31N 52°28' E 004°35'0 0.0
2017-Mar-18 13:31N 52°28' E 004°35'0 0.0
2017-Mar-18 12:31N 52°28' E 004°35'0 0.0
2017-Mar-18 11:31N 52°28' E 004°35'0 0.0
2017-Mar-18 10:31N 52°28' E 004°35'0 0.0
2017-Mar-18 09:31N 52°28' E 004°35'2 2.3
2017-Mar-18 08:33N 52°28' E 004°31'1919.3
2017-Mar-18 07:33N 52°28' E 003°60'16716.6
2017-Mar-17 21:30N 54°05' E 000°13'1818.7
2017-Mar-17 20:34N 54°17' W 000°10'5618.6
2017-Mar-17 17:32N 54°58' W 001°17'6 6.1
2017-Mar-17 16:33N 54°59' W 001°27'1 0.2
2017-Mar-17 08:33N 55°01' W 001°25'1616.2
2017-Mar-17 07:33N 54°53' W 001°01'3316.4
2017-Mar-17 05:33N 54°35' W 000°12'1616.5
2017-Mar-17 04:34N 54°27' E 000°11'17016.4
2017-Mar-16 18:11N 52°45' E 004°00'1015.8
2017-Mar-16 17:33N 52°39' E 004°13'1615.9
2017-Mar-16 16:33N 52°28' E 004°32'2 1.6
2017-Mar-16 15:31N 52°28' E 004°35'0 0.0
2017-Mar-16 14:31N 52°28' E 004°35'0 0.0
2017-Mar-16 13:31N 52°28' E 004°35'0 0.0
2017-Mar-16 12:31N 52°28' E 004°35'0 0.0
2017-Mar-16 11:31N 52°28' E 004°35'0 0.0
2017-Mar-16 10:31N 52°28' E 004°35'0 0.0
2017-Mar-16 09:31N 52°28' E 004°35'0 0.1
2017-Mar-16 08:34N 52°28' E 004°35'1110.5
2017-Mar-16 07:34N 52°33' E 004°20'1615.5
2017-Mar-16 06:33N 52°44' E 004°01'15417.1
2017-Mar-15 21:33N 54°17' E 000°36'1818.3
2017-Mar-15 20:33N 54°27' E 000°09'1818.4
2017-Mar-15 19:33N 54°37' W 000°17'4118.9
2017-Mar-15 17:25N 54°59' W 001°17'6 6.8
2017-Mar-15 16:33N 54°59' W 001°27'0 0.0
2017-Mar-15 15:30N 54°59' W 001°27'0 0.0
2017-Mar-15 12:10N 54°59' W 001°27'0 0.0
2017-Mar-15 11:33N 54°59' W 001°27'0 0.0
2017-Mar-15 10:33N 54°59' W 001°27'0 0.0
2017-Mar-15 09:33N 54°59' W 001°27'4 4.3
2017-Mar-15 08:33N 55°01' W 001°20'4515.0
2017-Mar-15 05:33N 54°36' W 000°15'1515.0
2017-Mar-15 04:33N 54°28' E 000°07'1716.9
2017-Mar-15 03:33N 54°18' E 000°31'17017.0
2017-Mar-14 17:33N 52°36' E 004°18'1312.9
2017-Mar-14 16:33N 52°28' E 004°35'0 0.0
2017-Mar-14 15:30N 52°28' E 004°35'0 0.0
2017-Mar-14 14:33N 52°28' E 004°35'0 0.0
2017-Mar-14 13:33N 52°28' E 004°35'0 0.0
2017-Mar-14 12:33N 52°28' E 004°35'0 0.0
2017-Mar-14 11:33N 52°28' E 004°35'0 0.0
2017-Mar-14 10:33N 52°28' E 004°35'0 0.0
2017-Mar-14 09:33N 52°28' E 004°35'0 0.2
2017-Mar-14 08:34N 52°28' E 004°35'1413.9
2017-Mar-14 07:33N 52°36' E 004°17'1818.0
2017-Mar-14 06:33N 52°48' E 003°54'14317.0
2017-Mar-13 22:09N 54°15' E 000°43'1017.4
2017-Mar-13 21:33N 54°20' E 000°28'1817.5
2017-Mar-13 20:33N 54°30' E 000°03'1817.9
2017-Mar-13 19:33N 54°39' W 000°23'3718.6
2017-Mar-13 17:33N 54°59' W 001°18'5 5.1
2017-Mar-13 16:33N 54°59' W 001°27'0 0.0
2017-Mar-13 15:28N 54°59' W 001°27'0 0.0
2017-Mar-13 14:31N 54°59' W 001°27'0 0.0
2017-Mar-13 13:28N 54°59' W 001°27'0 0.0
2017-Mar-13 12:31N 54°59' W 001°27'  
Track history (hours):
 
Tides and Currents Weather Stations Pressure Air Temp Water Temp Dewpoint Dewpoint Depression Visibility Wind Speed Wind Dir Waves Ship Positions

King of Scandinavia

Ship's website: http://www.dfds.co.uk/DSW/EN/OnBoard/na/KING.htm

Last reported at 2017-Mar-23 11:32 UTC. Time now 2017-Mar-23 12:17 UTC.
Position N 54°59' W 001°27'.

Length 166 m; beam 27.6 m; draft 6.2 m.

Type: Ship. MMSI: 220449000.

Date/timePositionNaut miles runAvg speedWind from/ knotsBaromVisibWave heightAir tempDewpointWater temp
2017-Mar-23 11:32N 54°59' W 001°27'0 0.0
2017-Mar-23 10:34N 54°59' W 001°27'0 0.0
2017-Mar-23 09:33N 54°59' W 001°27'5 5.1
2017-Mar-23 08:34N 54°60' W 001°18'3514.8
2017-Mar-23 06:11N 54°41' W 000°26'1117.7
2017-Mar-23 05:33N 54°34' W 000°11'1818.0
2017-Mar-23 04:34N 54°25' E 000°15'16716.3
2017-Mar-22 18:18N 52°45' E 004°01'1115.1
2017-Mar-22 17:34N 52°37' E 004°14'1514.9
2017-Mar-22 16:33N 52°28' E 004°33'1 1.1
2017-Mar-22 15:31N 52°28' E 004°35'0 0.0
2017-Mar-22 14:31N 52°28' E 004°35'0 0.0
2017-Mar-22 13:31N 52°28' E 004°35'0 0.0
2017-Mar-22 12:31N 52°28' E 004°35'0 0.0
2017-Mar-22 11:31N 52°28' E 004°35'0 0.0
2017-Mar-22 10:31N 52°28' E 004°35'0 0.0
2017-Mar-22 09:31N 52°28' E 004°35'0 0.0
2017-Mar-22 08:33N 52°28' E 004°35'1111.1
2017-Mar-22 07:33N 52°34' E 004°20'1414.4
2017-Mar-22 06:33N 52°44' E 004°03'15917.7
2017-Mar-21 21:33N 54°19' E 000°29'1818.3
2017-Mar-21 20:33N 54°29' E 000°03'1818.3
2017-Mar-21 19:33N 54°39' W 000°24'3818.2
2017-Mar-21 17:29N 54°59' W 001°19'5 4.8
2017-Mar-21 16:32N 54°59' W 001°27'0 0.0
2017-Mar-21 15:14N 54°59' W 001°27'0 0.0
2017-Mar-21 14:31N 54°59' W 001°27'0 0.0
2017-Mar-21 13:33N 54°59' W 001°27'0 0.0
2017-Mar-21 10:17N 54°59' W 001°27'0 0.0
2017-Mar-21 09:28N 54°59' W 001°27'5 5.7
2017-Mar-21 08:33N 54°60' W 001°18'4016.9
2017-Mar-21 06:13N 54°38' W 000°20'1116.4
2017-Mar-21 05:33N 54°32' W 000°04'1716.7
2017-Mar-21 04:34N 54°24' E 000°20'14916.6
2017-Mar-20 19:33N 52°55' E 003°42'1717.1
2017-Mar-20 18:33N 52°43' E 004°04'1616.3
2017-Mar-20 17:34N 52°32' E 004°23'9 8.6
2017-Mar-20 16:33N 52°28' E 004°35'0 0.0
2017-Mar-20 15:33N 52°28' E 004°35'0 0.0
2017-Mar-20 14:33N 52°28' E 004°35'0 0.0
2017-Mar-20 13:33N 52°28' E 004°35'0 0.0
2017-Mar-20 12:30N 52°28' E 004°35'0 0.0
2017-Mar-20 11:33N 52°28' E 004°35'0 0.0
2017-Mar-20 10:30N 52°28' E 004°35'0 0.0
2017-Mar-20 09:33N 52°28' E 004°35'0 0.0
2017-Mar-20 08:34N 52°28' E 004°35'1313.4
2017-Mar-20 07:34N 52°36' E 004°17'1615.7
2017-Mar-20 06:33N 52°46' E 003°58'15016.7
2017-Mar-19 21:34N 54°17' E 000°37'1919.0
2017-Mar-19 20:34N 54°27' E 000°09'1919.0
2017-Mar-19 19:34N 54°37' W 000°18'4018.9
2017-Mar-19 17:27N 54°58' W 001°17'6 6.7
2017-Mar-19 16:33N 54°59' W 001°27'0 0.0
2017-Mar-19 15:19N 54°59' W 001°27'0 0.0
2017-Mar-19 14:23N 54°59' W 001°27'0 0.0
2017-Mar-19 13:27N 54°59' W 001°27'0 0.0
2017-Mar-19 12:33N 54°59' W 001°27'0 0.0
2017-Mar-19 11:29N 54°59' W 001°27'0 0.0
2017-Mar-19 10:23N 54°59' W 001°27'0 0.0
2017-Mar-19 09:33N 54°59' W 001°27'6 6.0
2017-Mar-19 08:33N 54°59' W 001°17'4514.9
2017-Mar-19 05:33N 54°35' W 000°11'1716.8
2017-Mar-19 04:34N 54°26' E 000°13'18116.4
2017-Mar-18 17:31N 52°37' E 004°16'1414.3
2017-Mar-18 16:33N 52°28' E 004°34'1 0.7
2017-Mar-18 15:31N 52°28' E 004°35'0 0.0
2017-Mar-18 14:31N 52°28' E 004°35'0 0.0
2017-Mar-18 13:31N 52°28' E 004°35'0 0.0
2017-Mar-18 12:31N 52°28' E 004°35'0 0.0
2017-Mar-18 11:31N 52°28' E 004°35'0 0.0
2017-Mar-18 10:31N 52°28' E 004°35'0 0.0
2017-Mar-18 09:31N 52°28' E 004°35'2 2.3
2017-Mar-18 08:33N 52°28' E 004°31'1919.3
2017-Mar-18 07:33N 52°28' E 003°60'16716.6
2017-Mar-17 21:30N 54°05' E 000°13'1818.7
2017-Mar-17 20:34N 54°17' W 000°10'5618.6
2017-Mar-17 17:32N 54°58' W 001°17'6 6.1
2017-Mar-17 16:33N 54°59' W 001°27'1 0.2
2017-Mar-17 08:33N 55°01' W 001°25'1616.2
2017-Mar-17 07:33N 54°53' W 001°01'3316.4
2017-Mar-17 05:33N 54°35' W 000°12'1616.5
2017-Mar-17 04:34N 54°27' E 000°11'17016.4
2017-Mar-16 18:11N 52°45' E 004°00'1015.8
2017-Mar-16 17:33N 52°39' E 004°13'1615.9
2017-Mar-16 16:33N 52°28' E 004°32'2 1.6
2017-Mar-16 15:31N 52°28' E 004°35'0 0.0
2017-Mar-16 14:31N 52°28' E 004°35'0 0.0
2017-Mar-16 13:31N 52°28' E 004°35'0 0.0
2017-Mar-16 12:31N 52°28' E 004°35'0 0.0
2017-Mar-16 11:31N 52°28' E 004°35'0 0.0
2017-Mar-16 10:31N 52°28' E 004°35'0 0.0
2017-Mar-16 09:31N 52°28' E 004°35'0 0.1
2017-Mar-16 08:34N 52°28' E 004°35'1110.5
2017-Mar-16 07:34N 52°33' E 004°20'1615.5
2017-Mar-16 06:33N 52°44' E 004°01'15417.1
2017-Mar-15 21:33N 54°17' E 000°36'1818.3
2017-Mar-15 20:33N 54°27' E 000°09'1818.4
2017-Mar-15 19:33N 54°37' W 000°17'4118.9
2017-Mar-15 17:25N 54°59' W 001°17'6 6.8
2017-Mar-15 16:33N 54°59' W 001°27'0 0.0
2017-Mar-15 15:30N 54°59' W 001°27'0 0.0
2017-Mar-15 12:10N 54°59' W 001°27'0 0.0
2017-Mar-15 11:33N 54°59' W 001°27'0 0.0
2017-Mar-15 10:33N 54°59' W 001°27'0 0.0
2017-Mar-15 09:33N 54°59' W 001°27'4 4.3
2017-Mar-15 08:33N 55°01' W 001°20'4515.0
2017-Mar-15 05:33N 54°36' W 000°15'1515.0
2017-Mar-15 04:33N 54°28' E 000°07'1716.9
2017-Mar-15 03:33N 54°18' E 000°31'17017.0
2017-Mar-14 17:33N 52°36' E 004°18'1312.9
2017-Mar-14 16:33N 52°28' E 004°35'0 0.0
2017-Mar-14 15:30N 52°28' E 004°35'0 0.0
2017-Mar-14 14:33N 52°28' E 004°35'0 0.0
2017-Mar-14 13:33N 52°28' E 004°35'0 0.0
2017-Mar-14 12:33N 52°28' E 004°35'0 0.0
2017-Mar-14 11:33N 52°28' E 004°35'0 0.0
2017-Mar-14 10:33N 52°28' E 004°35'0 0.0
2017-Mar-14 09:33N 52°28' E 004°35'0 0.2
2017-Mar-14 08:34N 52°28' E 004°35'1413.9
2017-Mar-14 07:33N 52°36' E 004°17'1818.0
2017-Mar-14 06:33N 52°48' E 003°54'14317.0
2017-Mar-13 22:09N 54°15' E 000°43'1017.4
2017-Mar-13 21:33N 54°20' E 000°28'1817.5
2017-Mar-13 20:33N 54°30' E 000°03'1817.9
2017-Mar-13 19:33N 54°39' W 000°23'3718.6
2017-Mar-13 17:33N 54°59' W 001°18'5 5.1
2017-Mar-13 16:33N 54°59' W 001°27'0 0.0
2017-Mar-13 15:28N 54°59' W 001°27'0 0.0
2017-Mar-13 14:31N 54°59' W 001°27'0 0.0
2017-Mar-13 13:28N 54°59' W 001°27'0 0.0
2017-Mar-13 12:31N 54°59' W 001°27'  

Dump ship's entire track history